Time;durP1;ratioP1;P1;durP2;ratioP2;P2;SDS_P1;SDS_P2;PMS_P1;PMS_P2;Temp;Humidity;BMP_temperature;BMP_pressure;BME280_temperature;BME280_humidity;BME280_pressure;Samples;Min_cycle;Max_cycle;Signal;HPM_P1;HPM_P2
2024/03/30 00:01:20;;;;;;;5.72;0.43;;;14.00;99.90;;;;;;4801174;29;20141;-84
2024/03/30 00:03:47;;;;;;;5.00;0.60;;;14.00;99.90;;;;;;4809626;29;20112;-84
2024/03/30 00:06:15;;;;;;;5.55;0.52;;;14.00;99.90;;;;;;4820841;29;20043;-84
2024/03/30 00:08:42;;;;;;;5.32;0.47;;;14.00;99.90;;;;;;4805768;29;20046;-84
2024/03/30 00:11:09;;;;;;;4.78;0.63;;;13.90;99.90;;;;;;4804176;29;20053;-84
2024/03/30 00:13:36;;;;;;;5.90;0.68;;;14.00;99.90;;;;;;4798124;29;20138;-85
2024/03/30 00:16:09;;;;;;;5.68;0.50;;;13.90;99.90;;;;;;4811795;29;20052;-85
2024/03/30 00:18:37;;;;;;;8.60;0.95;;;13.90;99.90;;;;;;4819083;29;20037;-84
2024/03/30 00:21:05;;;;;;;6.03;0.77;;;14.00;99.90;;;;;;4815236;29;20750;-85
2024/03/30 00:23:32;;;;;;;5.05;0.63;;;13.90;99.90;;;;;;4799730;29;20053;-85
2024/03/30 00:26:01;;;;;;;7.53;0.80;;;13.90;99.90;;;;;;4808263;29;20498;-85
2024/03/30 00:28:28;;;;;;;6.82;0.85;;;13.90;99.90;;;;;;4818121;29;20395;-85
2024/03/30 00:30:55;;;;;;;3.72;0.47;;;13.80;99.90;;;;;;4810572;29;20046;-85
2024/03/30 00:33:24;;;;;;;6.82;0.50;;;13.80;99.90;;;;;;4807863;29;20042;-83
2024/03/30 00:35:56;;;;;;;7.38;0.82;;;13.80;99.90;;;;;;4803801;29;20050;-84
2024/03/30 00:38:23;;;;;;;4.90;0.40;;;13.70;99.90;;;;;;4779842;29;20046;-85
2024/03/30 00:40:52;;;;;;;6.43;0.65;;;13.70;99.90;;;;;;4809893;29;20050;-85
2024/03/30 00:43:19;;;;;;;9.32;0.50;;;13.70;99.90;;;;;;4804406;29;20145;-85
2024/03/30 00:45:47;;;;;;;3.17;0.40;;;13.60;99.90;;;;;;4802881;29;20054;-84
2024/03/30 00:48:14;;;;;;;4.18;0.80;;;13.60;99.90;;;;;;4796735;29;20708;-84
2024/03/30 00:50:44;;;;;;;3.53;0.43;;;13.60;99.90;;;;;;4806506;29;20498;-84
2024/03/30 00:53:10;;;;;;;2.60;0.82;;;13.60;99.90;;;;;;4830141;29;20524;-85
2024/03/30 00:55:38;;;;;;;5.55;0.40;;;13.50;99.90;;;;;;4819986;29;20050;-84
2024/03/30 00:58:06;;;;;;;4.03;0.55;;;13.50;99.90;;;;;;4811872;29;20597;-85
2024/03/30 01:00:34;;;;;;;7.63;1.02;;;13.50;99.90;;;;;;4804307;29;20410;-85
2024/03/30 01:03:01;;;;;;;4.55;0.47;;;13.50;99.90;;;;;;4802731;29;20704;-83
2024/03/30 01:05:29;;;;;;;5.60;0.70;;;13.40;99.90;;;;;;4813325;29;20057;-85
2024/03/30 01:07:57;;;;;;;5.35;0.60;;;13.40;99.90;;;;;;4806784;29;20046;-84
2024/03/30 01:10:25;;;;;;;6.75;0.73;;;13.40;99.90;;;;;;4816676;29;20487;-85
2024/03/30 01:12:53;;;;;;;7.15;0.50;;;13.30;99.90;;;;;;4792043;29;20038;-86
2024/03/30 01:15:22;;;;;;;4.70;0.73;;;13.30;99.90;;;;;;4816407;29;20052;-84
2024/03/30 01:17:49;;;;;;;3.58;0.40;;;13.30;99.90;;;;;;4809729;29;20507;-85
2024/03/30 01:20:20;;;;;;;3.85;0.40;;;13.30;99.90;;;;;;4810197;29;20083;-85
2024/03/30 01:22:47;;;;;;;6.72;0.75;;;13.30;99.90;;;;;;4810071;29;20591;-85
2024/03/30 01:25:18;;;;;;;3.83;0.68;;;13.30;99.90;;;;;;4789027;29;20050;-85
2024/03/30 01:27:46;;;;;;;2.53;0.40;;;13.30;99.90;;;;;;4806827;29;20134;-84
2024/03/30 01:30:15;;;;;;;5.82;0.65;;;13.20;99.90;;;;;;4811500;29;20466;-84
2024/03/30 01:32:43;;;;;;;5.63;0.82;;;13.20;99.90;;;;;;4812561;29;20190;-85
2024/03/30 01:35:12;;;;;;;7.38;0.93;;;13.20;99.90;;;;;;4806191;29;20046;-85
2024/03/30 01:37:38;;;;;;;3.15;0.70;;;13.10;99.90;;;;;;4813974;29;20387;-85
2024/03/30 01:40:07;;;;;;;3.30;1.02;;;13.10;99.90;;;;;;4821082;29;20046;-84
2024/03/30 01:42:36;;;;;;;3.08;0.60;;;13.10;99.90;;;;;;4810676;29;20055;-84
2024/03/30 01:45:04;;;;;;;3.63;0.50;;;13.10;99.90;;;;;;4815261;29;20037;-84
2024/03/30 01:47:31;;;;;;;6.45;0.52;;;13.00;99.90;;;;;;4822499;29;20129;-84
2024/03/30 01:50:00;;;;;;;10.27;0.60;;;13.00;99.90;;;;;;4808634;29;20045;-85
2024/03/30 01:52:30;;;;;;;5.00;0.60;;;13.00;99.90;;;;;;4807540;29;20320;-85
2024/03/30 01:54:59;;;;;;;5.85;0.52;;;12.90;99.90;;;;;;4820174;29;20081;-84
2024/03/30 01:57:26;;;;;;;4.13;0.52;;;12.90;99.90;;;;;;4816686;29;20083;-84
2024/03/30 01:59:56;;;;;;;6.10;0.73;;;12.90;99.90;;;;;;4815974;29;20483;-85
2024/03/30 02:02:25;;;;;;;6.43;0.88;;;12.90;99.90;;;;;;4813779;29;20122;-85
2024/03/30 02:04:53;;;;;;;3.42;0.63;;;12.80;99.90;;;;;;4804233;29;20046;-85
2024/03/30 02:07:21;;;;;;;4.75;0.50;;;12.80;99.90;;;;;;4805794;29;20038;-84
2024/03/30 02:09:49;;;;;;;5.82;1.13;;;12.70;99.90;;;;;;4785733;29;20105;-84
2024/03/30 02:12:16;;;;;;;2.20;0.40;;;12.70;99.90;;;;;;4808162;29;20042;-85
2024/03/30 02:14:44;;;;;;;7.18;0.82;;;12.70;99.90;;;;;;4803594;29;20058;-84
2024/03/30 02:17:12;;;;;;;5.63;0.70;;;12.60;99.90;;;;;;4799457;29;20070;-85
2024/03/30 02:19:45;;;;;;;6.47;0.90;;;12.60;99.90;;;;;;4808752;29;20140;-85
2024/03/30 02:22:17;;;;;;;4.20;0.85;;;12.60;99.90;;;;;;4809623;29;20070;-83
2024/03/30 02:24:47;;;;;;;5.43;1.00;;;12.50;99.90;;;;;;4812925;29;20050;-85
2024/03/30 02:27:13;;;;;;;3.65;0.75;;;12.50;99.90;;;;;;4817960;29;20046;-85
2024/03/30 02:29:43;;;;;;;5.85;0.90;;;12.60;99.90;;;;;;4808455;29;20133;-86
2024/03/30 02:32:10;;;;;;;5.55;1.15;;;12.60;99.90;;;;;;4795435;29;20580;-87
2024/03/30 02:34:38;;;;;;;4.80;1.15;;;12.60;99.90;;;;;;4811215;29;20046;-87
2024/03/30 02:37:05;;;;;;;5.25;0.82;;;12.60;99.90;;;;;;4815175;29;20058;-87
2024/03/30 02:39:34;;;;;;;3.03;0.60;;;12.60;99.90;;;;;;4815167;29;20109;-88
2024/03/30 02:42:02;;;;;;;5.50;0.88;;;12.60;99.90;;;;;;4797901;29;20077;-87
2024/03/30 02:44:30;;;;;;;5.45;1.00;;;12.60;99.90;;;;;;4794269;29;20042;-87
2024/03/30 02:46:57;;;;;;;5.90;1.40;;;12.50;99.90;;;;;;4827248;29;20050;-88
2024/03/30 02:49:24;;;;;;;5.53;0.85;;;12.50;99.90;;;;;;4820318;29;20049;-87
2024/03/30 02:51:51;;;;;;;3.75;0.82;;;12.50;99.90;;;;;;4795350;29;20050;-87
2024/03/30 02:54:19;;;;;;;5.47;0.77;;;12.50;99.90;;;;;;4799925;29;20496;-87
2024/03/30 02:56:45;;;;;;;1.75;0.55;;;12.50;99.90;;;;;;4799519;29;20519;-87
2024/03/30 02:59:15;;;;;;;5.63;0.60;;;12.40;99.90;;;;;;4807533;29;20514;-86
2024/03/30 03:01:42;;;;;;;6.10;1.70;;;12.40;99.90;;;;;;4798578;29;20114;-87
2024/03/30 03:04:10;;;;;;;5.07;1.15;;;12.30;99.90;;;;;;4811774;29;20054;-87
2024/03/30 03:06:36;;;;;;;2.80;0.60;;;12.30;99.90;;;;;;4811304;29;20060;-86
2024/03/30 03:09:05;;;;;;;4.68;0.63;;;12.30;99.90;;;;;;4809565;29;20456;-87
2024/03/30 03:11:31;;;;;;;4.20;0.70;;;12.30;99.90;;;;;;4818810;29;20049;-87
2024/03/30 03:13:59;;;;;;;4.65;1.00;;;12.30;99.90;;;;;;4795456;29;20050;-87
2024/03/30 03:16:27;;;;;;;6.78;1.48;;;12.30;99.90;;;;;;4795405;29;20050;-87
2024/03/30 03:18:55;;;;;;;14.27;1.63;;;12.20;99.90;;;;;;4801052;29;20049;-88
2024/03/30 03:21:21;;;;;;;4.82;0.90;;;12.20;99.90;;;;;;4799098;29;20050;-88
2024/03/30 03:23:51;;;;;;;3.38;0.60;;;12.20;99.90;;;;;;4819201;29;20050;-88
2024/03/30 03:26:18;;;;;;;4.90;1.02;;;12.20;99.90;;;;;;4804398;29;20037;-87
2024/03/30 03:28:46;;;;;;;4.20;0.88;;;12.10;99.90;;;;;;4806020;29;20041;-87
2024/03/30 03:31:12;;;;;;;4.65;1.02;;;12.10;99.90;;;;;;4813791;29;20043;-85
2024/03/30 03:33:41;;;;;;;7.05;0.63;;;12.00;99.90;;;;;;4813062;29;20041;-86
2024/03/30 03:36:08;;;;;;;4.75;0.70;;;12.10;99.90;;;;;;4803447;29;20053;-88
2024/03/30 03:38:36;;;;;;;5.03;1.48;;;12.10;99.90;;;;;;4794699;29;20045;-87
2024/03/30 03:41:02;;;;;;;7.18;1.50;;;12.10;99.90;;;;;;4803285;29;20469;-87
2024/03/30 03:43:30;;;;;;;5.57;1.20;;;12.00;99.90;;;;;;4800806;29;20057;-85
2024/03/30 03:45:57;;;;;;;5.90;0.75;;;11.90;99.90;;;;;;4804078;29;20158;-87
2024/03/30 03:48:24;;;;;;;8.80;1.65;;;11.90;99.90;;;;;;4798675;29;20038;-87
2024/03/30 03:50:53;;;;;;;4.10;0.90;;;11.90;99.90;;;;;;4797364;29;20144;-87
2024/03/30 03:53:21;;;;;;;7.90;1.13;;;11.80;99.90;;;;;;4794533;29;20052;-85
2024/03/30 03:55:47;;;;;;;7.57;2.35;;;11.80;99.90;;;;;;4803459;29;20085;-89
2024/03/30 03:58:15;;;;;;;2.83;0.60;;;11.80;99.90;;;;;;4814521;29;20038;-87
2024/03/30 04:00:42;;;;;;;5.78;1.33;;;11.80;99.90;;;;;;4816351;29;20049;-88
2024/03/30 04:03:10;;;;;;;8.15;1.10;;;11.80;99.90;;;;;;4820942;29;20042;-85
2024/03/30 04:05:36;;;;;;;4.07;1.25;;;11.70;99.90;;;;;;4808265;29;20050;-88
2024/03/30 04:08:06;;;;;;;3.33;1.15;;;11.70;99.90;;;;;;4809065;29;20053;-86
2024/03/30 04:10:33;;;;;;;5.20;1.05;;;11.70;99.90;;;;;;4815489;29;20502;-87
2024/03/30 04:13:00;;;;;;;7.57;0.75;;;11.70;99.90;;;;;;4796606;29;20046;-87
2024/03/30 04:15:27;;;;;;;12.60;1.48;;;11.60;99.90;;;;;;4802054;29;20057;-87
2024/03/30 04:17:55;;;;;;;6.65;1.70;;;11.60;99.90;;;;;;4800975;29;20042;-87
2024/03/30 04:20:22;;;;;;;6.85;1.60;;;11.70;99.90;;;;;;4797838;29;20046;-88
2024/03/30 04:22:49;;;;;;;6.47;1.35;;;11.70;99.90;;;;;;4804763;29;20046;-88
2024/03/30 04:25:17;;;;;;;5.53;1.02;;;11.60;99.90;;;;;;4821678;29;20046;-88
2024/03/30 04:27:45;;;;;;;2.95;1.42;;;11.60;99.90;;;;;;4818405;29;20153;-87
2024/03/30 04:30:13;;;;;;;3.92;1.33;;;11.60;99.90;;;;;;4794815;29;20498;-89
2024/03/30 04:32:41;;;;;;;4.85;1.63;;;11.60;99.90;;;;;;4811004;29;20129;-85
2024/03/30 04:35:07;;;;;;;5.95;1.23;;;11.60;99.90;;;;;;4805022;29;20046;-88
2024/03/30 04:37:35;;;;;;;5.70;1.65;;;11.60;99.90;;;;;;4804155;29;20050;-86
2024/03/30 04:40:03;;;;;;;3.83;1.20;;;11.60;99.90;;;;;;4799042;29;20157;-89
2024/03/30 04:42:33;;;;;;;3.60;1.27;;;11.50;99.90;;;;;;4800586;29;20072;-88
2024/03/30 04:44:59;;;;;;;6.13;1.10;;;11.60;99.90;;;;;;4807076;29;20818;-87
2024/03/30 04:47:27;;;;;;;8.93;1.27;;;11.60;99.90;;;;;;4830111;29;20141;-87
2024/03/30 04:49:54;;;;;;;3.15;0.88;;;11.50;99.90;;;;;;4818163;29;20052;-88
2024/03/30 04:52:22;;;;;;;7.30;1.30;;;11.50;99.90;;;;;;4813154;29;20149;-88
2024/03/30 04:54:49;;;;;;;5.57;1.13;;;11.60;99.90;;;;;;4819388;29;20627;-87
2024/03/30 04:57:17;;;;;;;5.20;1.05;;;11.60;99.90;;;;;;4804586;29;20113;-89
2024/03/30 04:59:45;;;;;;;3.97;1.10;;;11.60;99.90;;;;;;4821505;29;20483;-88
2024/03/30 05:02:13;;;;;;;5.35;1.67;;;11.70;99.90;;;;;;4821661;29;20136;-89
2024/03/30 05:04:41;;;;;;;4.45;1.05;;;11.70;99.90;;;;;;4802582;29;20563;-88
2024/03/30 05:07:09;;;;;;;7.18;1.48;;;11.70;99.90;;;;;;4820716;29;20042;-89
2024/03/30 05:09:35;;;;;;;3.30;1.20;;;11.70;99.90;;;;;;4821354;29;20054;-87
2024/03/30 05:12:03;;;;;;;4.03;0.80;;;11.80;99.90;;;;;;4835556;29;20122;-88
2024/03/30 05:14:30;;;;;;;5.65;1.15;;;11.80;99.90;;;;;;4805254;29;20054;-89
2024/03/30 05:16:59;;;;;;;5.40;1.25;;;11.80;99.90;;;;;;4818524;29;20043;-89
2024/03/30 05:22:11;;;;;;;6.50;1.52;;;11.90;99.90;;;;;;4810026;29;20061;-88
2024/03/30 05:24:38;;;;;;;5.47;1.15;;;11.90;99.90;;;;;;4822095;29;20033;-88
2024/03/30 05:27:05;;;;;;;4.28;0.70;;;12.00;99.90;;;;;;4805816;29;20054;-87
2024/03/30 05:29:33;;;;;;;5.18;1.20;;;12.10;99.90;;;;;;4804772;29;20040;-89
2024/03/30 05:32:02;;;;;;;5.93;1.83;;;12.10;99.90;;;;;;4811242;29;20160;-89
2024/03/30 05:34:29;;;;;;;4.40;1.73;;;12.10;99.90;;;;;;4812910;29;20253;-86
2024/03/30 05:36:56;;;;;;;11.30;1.98;;;12.20;99.90;;;;;;4813921;29;20034;-89
2024/03/30 05:39:24;;;;;;;5.68;1.40;;;12.20;99.90;;;;;;4799335;29;20043;-88
2024/03/30 05:41:50;;;;;;;6.65;1.40;;;12.20;99.90;;;;;;4836913;29;20099;-88
2024/03/30 05:44:18;;;;;;;7.57;1.45;;;12.30;99.90;;;;;;4804164;29;20165;-87
2024/03/30 05:46:44;;;;;;;4.43;1.20;;;12.30;99.90;;;;;;4801375;29;20188;-88
2024/03/30 05:49:13;;;;;;;9.15;1.70;;;12.40;99.90;;;;;;4802842;29;20034;-88
2024/03/30 05:51:40;;;;;;;4.38;1.13;;;12.50;99.90;;;;;;4801902;29;20062;-88
2024/03/30 05:54:07;;;;;;;4.97;1.27;;;12.60;99.90;;;;;;4817208;29;20050;-87
2024/03/30 05:56:34;;;;;;;7.80;1.10;;;12.70;99.90;;;;;;4818524;29;20597;-87
2024/03/30 05:59:02;;;;;;;4.05;0.88;;;12.80;99.90;;;;;;4796309;29;20078;-85
2024/03/30 06:01:28;;;;;;;8.00;1.98;;;12.90;99.90;;;;;;4821169;29;20054;-88
2024/03/30 06:03:56;;;;;;;2.88;1.00;;;13.00;99.90;;;;;;4805681;29;20058;-87
2024/03/30 06:06:24;;;;;;;10.40;1.10;;;13.00;99.90;;;;;;4816064;29;20153;-86
2024/03/30 06:08:52;;;;;;;3.45;0.90;;;13.10;99.90;;;;;;4815715;29;20128;-88
2024/03/30 06:11:18;;;;;;;4.13;1.30;;;13.10;99.90;;;;;;4832418;29;20046;-87
2024/03/30 06:13:46;;;;;;;6.00;1.10;;;13.20;99.90;;;;;;4805039;29;20057;-88
2024/03/30 06:16:13;;;;;;;4.05;0.60;;;13.30;99.90;;;;;;4805766;29;20069;-87
2024/03/30 06:18:42;;;;;;;3.90;0.95;;;13.40;99.90;;;;;;4800737;29;20146;-89
2024/03/30 06:21:08;;;;;;;6.78;2.20;;;13.50;99.90;;;;;;4819288;29;20061;-89
2024/03/30 06:23:37;;;;;;;4.82;1.45;;;13.50;99.90;;;;;;4810741;29;20042;-88
2024/03/30 06:26:04;;;;;;;6.93;1.40;;;13.70;99.90;;;;;;4817072;29;20046;-87
2024/03/30 06:28:31;;;;;;;3.95;1.35;;;13.70;99.90;;;;;;4800711;29;20053;-87
2024/03/30 06:31:00;;;;;;;4.47;1.20;;;13.80;99.90;;;;;;4810358;29;20082;-88
2024/03/30 06:33:28;;;;;;;4.07;1.10;;;13.90;99.90;;;;;;4814026;29;20074;-88
2024/03/30 06:35:55;;;;;;;5.35;0.95;;;14.00;99.90;;;;;;4815938;29;20131;-88
2024/03/30 06:38:22;;;;;;;7.18;0.90;;;14.00;99.90;;;;;;4792524;29;20522;-88
2024/03/30 06:43:46;;;;;;;4.25;1.27;;;14.20;99.90;;;;;;4795927;29;20046;-87
2024/03/30 06:46:14;;;;;;;5.10;1.50;;;14.30;99.90;;;;;;4797475;29;20046;-87
2024/03/30 06:48:42;;;;;;;6.72;2.45;;;14.50;99.90;;;;;;4808659;29;20045;-87
2024/03/30 06:51:09;;;;;;;6.80;1.35;;;14.60;99.90;;;;;;4791808;29;20058;-87
2024/03/30 06:53:37;;;;;;;6.95;1.33;;;14.70;99.90;;;;;;4802546;29;20068;-85
2024/03/30 06:56:06;;;;;;;4.63;0.90;;;14.80;99.90;;;;;;4814024;29;20776;-85
2024/03/30 06:58:34;;;;;;;6.35;0.85;;;14.90;99.90;;;;;;4813017;29;20078;-86
2024/03/30 07:01:02;;;;;;;4.45;0.90;;;15.00;99.90;;;;;;4821754;29;20042;-85
2024/03/30 07:03:29;;;;;;;3.53;1.00;;;15.20;99.90;;;;;;4833258;29;20173;-85
2024/03/30 07:05:56;;;;;;;4.80;0.65;;;15.30;99.90;;;;;;4817641;29;20102;-83
2024/03/30 07:08:23;;;;;;;8.10;1.08;;;15.50;99.90;;;;;;4832871;29;20078;-85
2024/03/30 07:10:50;;;;;;;4.78;1.15;;;15.60;99.90;;;;;;4812995;29;20133;-85
2024/03/30 07:13:19;;;;;;;6.57;0.82;;;15.70;99.90;;;;;;4805465;29;20038;-85
2024/03/30 07:15:48;;;;;;;7.10;0.73;;;15.90;99.90;;;;;;4820660;29;20042;-85
2024/03/30 07:18:17;;;;;;;6.95;0.80;;;16.00;99.90;;;;;;4803965;29;20583;-84
2024/03/30 07:20:44;;;;;;;5.47;0.80;;;16.10;99.90;;;;;;4807394;29;20070;-84
2024/03/30 07:23:12;;;;;;;6.75;1.23;;;16.20;99.90;;;;;;4819826;29;20125;-85
2024/03/30 07:25:39;;;;;;;3.90;0.63;;;16.30;99.90;;;;;;4823562;29;20049;-84
2024/03/30 07:28:08;;;;;;;6.28;0.80;;;16.50;99.90;;;;;;4804074;29;20105;-85
2024/03/30 07:30:39;;;;;;;7.97;1.42;;;16.60;99.90;;;;;;4804472;29;20526;-85
2024/03/30 07:33:06;;;;;;;6.68;0.70;;;16.80;99.90;;;;;;4808409;29;20049;-85
2024/03/30 07:35:33;;;;;;;4.78;0.90;;;16.90;99.90;;;;;;4808108;29;20129;-85
2024/03/30 07:38:01;;;;;;;6.35;1.23;;;17.10;99.90;;;;;;4823962;29;20150;-84
2024/03/30 07:40:28;;;;;;;3.17;1.52;;;17.20;99.90;;;;;;4803837;29;20072;-85
2024/03/30 07:42:55;;;;;;;8.57;0.73;;;17.30;99.90;;;;;;4805946;29;20033;-85
2024/03/30 07:45:22;;;;;;;9.55;1.10;;;17.40;99.90;;;;;;4811620;29;20361;-85
2024/03/30 07:47:51;;;;;;;5.10;0.75;;;17.50;99.90;;;;;;4790413;29;20042;-83
2024/03/30 07:50:18;;;;;;;5.40;0.40;;;17.60;99.90;;;;;;4818715;29;20062;-83
2024/03/30 07:52:49;;;;;;;6.60;0.57;;;17.70;98.90;;;;;;4806711;29;20069;-85
2024/03/30 07:55:16;;;;;;;7.00;0.90;;;17.80;99.10;;;;;;4805914;29;20141;-85
2024/03/30 07:57:44;;;;;;;7.60;0.77;;;17.90;98.20;;;;;;4815798;29;20043;-85
2024/03/30 08:00:11;;;;;;;6.50;1.33;;;18.00;98.50;;;;;;4798636;29;20050;-85
2024/03/30 08:02:39;;;;;;;9.57;0.68;;;18.10;97.70;;;;;;4804168;29;20046;-85
2024/03/30 08:05:08;;;;;;;7.68;1.30;;;18.30;97.10;;;;;;4800638;29;20046;-84
2024/03/30 08:07:36;;;;;;;3.67;0.40;;;18.40;97.20;;;;;;4800718;29;20129;-85
2024/03/30 08:10:03;;;;;;;5.45;1.00;;;18.60;97.90;;;;;;4805572;29;20173;-84
2024/03/30 08:12:31;;;;;;;10.73;0.85;;;18.60;96.40;;;;;;4819334;29;20080;-82
2024/03/30 08:14:58;;;;;;;7.18;0.57;;;18.70;95.00;;;;;;4803951;29;20065;-85
2024/03/30 08:17:26;;;;;;;7.25;1.23;;;18.90;95.30;;;;;;4804941;29;20058;-84
2024/03/30 08:19:53;;;;;;;6.78;0.88;;;19.10;94.50;;;;;;4817547;29;20038;-85
2024/03/30 08:22:22;;;;;;;10.80;1.35;;;19.10;94.70;;;;;;4804233;29;20415;-84
2024/03/30 08:24:49;;;;;;;12.10;0.82;;;19.10;94.10;;;;;;4808621;29;20047;-84
2024/03/30 08:27:17;;;;;;;10.57;0.93;;;19.40;94.40;;;;;;4803379;29;20036;-82
2024/03/30 08:29:44;;;;;;;7.47;0.98;;;19.20;92.90;;;;;;4822316;29;20133;-84
2024/03/30 08:32:12;;;;;;;9.90;0.77;;;19.30;93.00;;;;;;4803306;29;20054;-83
2024/03/30 08:34:39;;;;;;;10.80;1.05;;;19.50;92.80;;;;;;4813547;29;20042;-84
2024/03/30 08:37:07;;;;;;;7.32;0.77;;;19.50;91.90;;;;;;4803518;29;20035;-85
2024/03/30 08:39:35;;;;;;;10.43;0.60;;;19.50;91.70;;;;;;4804315;29;20051;-83
2024/03/30 08:42:03;;;;;;;3.95;0.30;;;19.60;92.30;;;;;;4812940;29;20046;-84
2024/03/30 08:44:30;;;;;;;7.45;0.57;;;19.80;91.90;;;;;;4829544;29;20034;-84
2024/03/30 08:46:58;;;;;;;7.55;0.70;;;19.80;90.80;;;;;;4808721;29;20242;-84
2024/03/30 08:49:25;;;;;;;16.08;1.15;;;19.90;90.80;;;;;;4838548;29;20055;-87
2024/03/30 08:51:53;;;;;;;8.57;1.00;;;19.90;90.50;;;;;;4808697;29;20052;-84
2024/03/30 08:54:20;;;;;;;12.27;1.00;;;20.00;91.00;;;;;;4822328;29;20065;-84
2024/03/30 08:56:49;;;;;;;9.02;0.73;;;20.10;90.70;;;;;;4810105;29;20038;-84
2024/03/30 08:59:16;;;;;;;6.57;1.00;;;20.20;91.20;;;;;;4801208;29;20049;-82
2024/03/30 09:01:45;;;;;;;7.28;0.45;;;20.20;90.80;;;;;;4808975;29;20848;-82
2024/03/30 09:04:12;;;;;;;10.65;0.57;;;20.20;91.00;;;;;;4801439;29;20034;-82
2024/03/30 09:06:39;;;;;;;14.57;1.40;;;20.40;90.90;;;;;;4804181;29;20190;-82
2024/03/30 09:09:06;;;;;;;11.23;1.40;;;20.40;90.40;;;;;;4804853;29;20042;-82
2024/03/30 09:11:34;;;;;;;10.43;0.60;;;20.20;89.20;;;;;;4802880;29;20100;-83
2024/03/30 09:14:02;;;;;;;9.23;0.77;;;20.20;90.40;;;;;;4807531;29;20503;-82
2024/03/30 09:16:29;;;;;;;9.25;0.98;;;20.20;91.00;;;;;;4823879;29;20048;-81
2024/03/30 09:18:56;;;;;;;4.93;0.38;;;20.10;91.00;;;;;;4800329;29;20107;-82
2024/03/30 09:21:24;;;;;;;10.88;1.88;;;20.20;90.50;;;;;;4827515;29;20094;-83
2024/03/30 09:23:51;;;;;;;12.52;1.13;;;20.30;90.80;;;;;;4826519;29;20045;-83
2024/03/30 09:26:19;;;;;;;12.68;1.20;;;20.40;91.10;;;;;;4811344;29;20566;-83
2024/03/30 09:28:46;;;;;;;8.77;1.27;;;20.70;89.70;;;;;;4815623;29;20053;-83
2024/03/30 09:31:15;;;;;;;12.45;0.70;;;20.70;89.80;;;;;;4829658;29;20513;-83
2024/03/30 09:33:42;;;;;;;12.85;0.63;;;20.90;89.60;;;;;;4817285;29;20058;-82
2024/03/30 09:36:14;;;;;;;8.95;0.60;;;21.00;87.10;;;;;;4799564;29;20053;-82
2024/03/30 09:38:41;;;;;;;6.13;0.75;;;21.10;85.70;;;;;;4798059;29;20499;-83
2024/03/30 09:41:11;;;;;;;7.72;1.35;;;21.10;86.90;;;;;;4814950;29;20042;-82
2024/03/30 09:43:39;;;;;;;10.48;0.90;;;21.30;87.90;;;;;;4822587;29;20146;-83
2024/03/30 09:46:07;;;;;;;6.38;0.68;;;21.50;87.80;;;;;;4810546;29;20049;-84
2024/03/30 09:48:38;;;;;;;10.18;1.15;;;21.70;86.90;;;;;;4821280;29;20042;-82
2024/03/30 09:51:07;;;;;;;11.32;1.13;;;21.80;85.00;;;;;;4809659;29;20129;-82
2024/03/30 09:53:39;;;;;;;11.95;1.80;;;21.90;83.10;;;;;;4813497;29;20526;-81
2024/03/30 09:56:08;;;;;;;6.10;0.40;;;22.00;82.40;;;;;;4807611;29;20790;-82
2024/03/30 09:58:37;;;;;;;7.68;0.93;;;22.10;83.40;;;;;;4802511;29;20310;-83
2024/03/30 10:01:05;;;;;;;8.73;0.52;;;22.00;81.30;;;;;;4828112;29;20388;-83
2024/03/30 10:03:34;;;;;;;17.80;2.47;;;22.00;81.00;;;;;;4826547;29;20046;-81
2024/03/30 10:06:06;;;;;;;12.00;0.60;;;22.00;80.60;;;;;;4821284;29;20060;-84
2024/03/30 10:08:37;;;;;;;4.43;0.50;;;21.80;81.30;;;;;;4813220;29;20103;-82
2024/03/30 10:11:10;;;;;;;9.80;0.70;;;21.50;83.30;;;;;;4803301;29;20038;-82
2024/03/30 10:13:39;;;;;;;;;;;21.50;83.90;;;;;;4816495;29;20045;-82
2024/03/30 10:16:06;;;;;;;9.40;1.42;;;21.80;83.30;;;;;;4823776;29;19924;-84
2024/03/30 10:18:34;;;;;;;9.80;1.15;;;21.80;84.20;;;;;;4803084;29;20041;-81
2024/03/30 10:21:04;;;;;;;15.07;0.93;;;21.90;84.70;;;;;;4813180;29;20096;-82
2024/03/30 10:23:33;;;;;;;8.52;1.25;;;22.00;83.80;;;;;;4815608;29;20144;-84
2024/03/30 10:26:12;;;;;;;13.32;1.20;;;22.10;85.80;;;;;;4807236;29;20141;-85
2024/03/30 10:28:42;;;;;;;7.75;0.90;;;22.10;85.00;;;;;;4805681;29;20073;-85
2024/03/30 10:31:09;;;;;;;12.85;1.23;;;22.20;83.50;;;;;;4812698;29;20851;-82
2024/03/30 10:33:37;;;;;;;6.38;0.55;;;22.20;83.70;;;;;;4817245;29;20615;-83
2024/03/30 10:36:09;;;;;;;12.30;1.15;;;22.20;82.60;;;;;;4790560;29;20046;-83
2024/03/30 10:38:38;;;;;;;7.88;0.98;;;22.10;82.20;;;;;;4796502;29;20079;-84
2024/03/30 10:41:06;;;;;;;11.25;0.85;;;22.10;82.50;;;;;;4820048;29;20050;-84
2024/03/30 10:43:35;;;;;;;7.50;0.70;;;22.10;81.00;;;;;;4798410;29;20052;-83
2024/03/30 10:46:02;;;;;;;16.30;1.48;;;22.10;79.70;;;;;;4823108;29;20122;-84
2024/03/30 10:48:30;;;;;;;13.40;0.73;;;22.20;78.80;;;;;;4805262;29;20038;-85
2024/03/30 10:50:57;;;;;;;12.27;1.90;;;22.20;78.10;;;;;;4804551;29;20069;-83
2024/03/30 10:53:27;;;;;;;7.43;1.08;;;22.40;79.10;;;;;;4800723;29;20049;-85
2024/03/30 10:55:54;;;;;;;10.25;1.05;;;22.50;75.70;;;;;;4831247;29;20533;-84
2024/03/30 10:58:22;;;;;;;13.95;2.15;;;22.70;78.50;;;;;;4825344;29;20054;-84
2024/03/30 11:00:49;;;;;;;12.88;0.77;;;22.70;76.90;;;;;;4804615;29;20054;-84
2024/03/30 11:03:18;;;;;;;6.75;0.55;;;22.90;76.90;;;;;;4799961;29;20763;-84
2024/03/30 11:05:47;;;;;;;9.93;0.93;;;22.80;78.00;;;;;;4803563;29;20046;-83
2024/03/30 11:08:16;;;;;;;8.60;0.95;;;22.70;77.90;;;;;;4804151;29;20041;-81
2024/03/30 11:10:45;;;;;;;9.10;1.00;;;22.70;78.00;;;;;;4814012;29;20046;-82
2024/03/30 11:13:13;;;;;;;12.00;1.33;;;22.70;76.90;;;;;;4805057;29;20047;-82
2024/03/30 11:15:42;;;;;;;11.10;1.40;;;22.70;76.40;;;;;;4804997;29;20106;-81
2024/03/30 11:18:15;;;;;;;10.00;0.90;;;22.90;78.30;;;;;;4794659;29;20141;-81
2024/03/30 11:20:50;;;;;;;17.02;1.42;;;23.00;78.20;;;;;;4817872;29;20052;-82
2024/03/30 11:23:25;;;;;;;18.65;3.72;;;23.20;75.10;;;;;;4821497;29;20117;-83
2024/03/30 11:26:03;;;;;;;12.80;2.13;;;23.20;74.60;;;;;;4821312;29;20046;-81
2024/03/30 11:28:39;;;;;;;16.70;1.83;;;23.40;74.50;;;;;;4795668;29;20058;-81
2024/03/30 11:31:17;;;;;;;20.20;2.50;;;23.40;74.20;;;;;;4803893;29;20042;-82
2024/03/30 11:33:57;;;;;;;17.05;1.65;;;23.40;71.60;;;;;;4810174;29;20462;-82
2024/03/30 11:36:33;;;;;;;13.20;1.33;;;23.20;70.30;;;;;;4792609;29;20078;-80
2024/03/30 11:39:16;;;;;;;20.95;1.50;;;23.20;69.80;;;;;;4811395;29;20131;-82
2024/03/30 11:41:51;;;;;;;17.20;1.60;;;23.50;72.00;;;;;;4803088;29;20049;-81
2024/03/30 11:44:23;;;;;;;20.05;2.22;;;23.50;69.00;;;;;;4802719;29;20099;-81
2024/03/30 11:46:51;;;;;;;12.30;1.30;;;23.60;69.70;;;;;;4799278;29;20054;-82
2024/03/30 11:49:19;;;;;;;10.57;1.52;;;23.50;70.40;;;;;;4805041;29;20058;-82
2024/03/30 11:51:50;;;;;;;16.67;1.52;;;23.50;70.80;;;;;;4808692;29;20065;-81
2024/03/30 11:54:23;;;;;;;17.65;1.58;;;23.30;68.90;;;;;;4823287;29;20046;-82
2024/03/30 11:57:04;;;;;;;;;;;23.00;69.70;;;;;;4799189;29;20604;-83
2024/03/30 11:59:37;;;;;;;20.67;1.00;;;22.80;69.50;;;;;;4801405;29;19977;-82
2024/03/30 12:02:06;;;;;;;15.70;2.08;;;22.70;70.20;;;;;;4798627;29;20046;-82
2024/03/30 12:04:38;;;;;;;13.27;1.73;;;22.60;70.60;;;;;;4818323;29;20198;-81
2024/03/30 12:07:08;;;;;;;;;;;22.70;71.10;;;;;;4806767;29;20067;-82
2024/03/30 12:09:36;;;;;;;8.88;1.00;;;22.90;69.90;;;;;;4803054;29;20007;-82
2024/03/30 12:12:18;;;;;;;19.17;2.90;;;23.00;69.40;;;;;;4802571;29;20169;-82
2024/03/30 12:14:47;;;;;;;20.08;2.15;;;23.10;69.60;;;;;;4796016;29;20042;-84
2024/03/30 12:17:15;;;;;;;17.83;1.60;;;23.20;70.30;;;;;;4802491;29;20061;-82
2024/03/30 12:19:45;;;;;;;23.52;2.00;;;23.30;70.20;;;;;;4803656;29;20416;-83
2024/03/30 12:22:12;;;;;;;25.45;3.17;;;23.20;69.50;;;;;;4792463;29;20057;-80
2024/03/30 12:24:42;;;;;;;18.75;1.70;;;23.20;70.70;;;;;;4804355;29;20054;-82
2024/03/30 12:27:08;;;;;;;17.67;1.80;;;23.20;70.30;;;;;;4816212;29;20129;-80
2024/03/30 12:29:38;;;;;;;18.92;1.73;;;23.20;70.40;;;;;;4803431;29;20080;-81
2024/03/30 12:32:06;;;;;;;21.25;1.90;;;23.20;70.30;;;;;;4832449;29;20046;-83
2024/03/30 12:34:34;;;;;;;17.30;1.35;;;23.30;67.40;;;;;;4804046;29;20064;-82
2024/03/30 12:37:01;;;;;;;20.25;2.75;;;23.40;66.60;;;;;;4818943;29;20085;-82
2024/03/30 12:39:29;;;;;;;18.10;1.60;;;23.70;67.20;;;;;;4790435;29;20054;-81
2024/03/30 12:41:56;;;;;;;17.33;1.95;;;23.70;67.80;;;;;;4815424;29;20094;-81
2024/03/30 12:44:25;;;;;;;21.83;1.45;;;23.70;67.70;;;;;;4809612;29;20042;-84
2024/03/30 12:46:53;;;;;;;23.05;2.67;;;23.90;67.20;;;;;;4819077;29;20129;-83
2024/03/30 12:49:22;;;;;;;22.33;2.28;;;23.90;67.30;;;;;;4799755;29;20857;-81
2024/03/30 12:51:49;;;;;;;15.15;2.05;;;23.90;67.80;;;;;;4802258;29;20053;-81
2024/03/30 12:54:17;;;;;;;14.07;1.80;;;23.80;70.00;;;;;;4812176;29;20065;-82
2024/03/30 12:56:43;;;;;;;15.68;1.77;;;23.80;69.70;;;;;;4816635;29;20050;-81